createdAt,value
2023-07-03T00:00:43.448Z,21.50
2023-07-03T00:01:45.835Z,21.50
2023-07-03T00:02:51.029Z,21.50
2023-07-03T00:03:53.105Z,21.60
2023-07-03T00:05:57.183Z,21.60
2023-07-03T00:06:58.826Z,21.60
2023-07-03T00:08:00.536Z,21.60
2023-07-03T00:09:02.208Z,21.60
2023-07-03T00:10:05.293Z,21.60
2023-07-03T00:11:07.113Z,21.60
2023-07-03T00:12:10.291Z,21.60
2023-07-03T00:13:16.099Z,21.70
2023-07-03T00:14:18.130Z,21.60
2023-07-03T00:15:19.950Z,21.70
2023-07-03T00:16:21.644Z,21.60
2023-07-03T00:17:23.369Z,21.60
2023-07-03T00:18:25.312Z,21.60
2023-07-03T00:19:31.769Z,21.60
2023-07-03T00:20:33.595Z,21.50
2023-07-03T00:21:39.750Z,21.50
2023-07-03T00:22:42.839Z,21.50
2023-07-03T00:23:44.563Z,21.50
2023-07-03T00:24:46.281Z,21.40
2023-07-03T00:25:48.093Z,21.40
2023-07-03T00:26:49.911Z,21.40
2023-07-03T00:27:51.604Z,21.40
2023-07-03T00:28:53.253Z,21.40
2023-07-03T00:29:55.063Z,21.40
2023-07-03T00:30:56.745Z,21.40
2023-07-03T00:31:59.448Z,21.40
2023-07-03T00:33:01.221Z,21.40
2023-07-03T00:34:02.947Z,21.30
2023-07-03T00:35:05.250Z,21.30
2023-07-03T00:36:06.949Z,21.30
2023-07-03T00:37:08.654Z,21.30
2023-07-03T00:38:10.338Z,21.30
2023-07-03T00:39:12.056Z,21.30
2023-07-03T00:40:13.963Z,21.30
2023-07-03T00:41:15.625Z,21.30
2023-07-03T00:42:17.384Z,21.20
2023-07-03T00:43:19.023Z,21.20
2023-07-03T00:44:21.217Z,21.30
2023-07-03T00:45:23.381Z,21.30
2023-07-03T00:46:25.493Z,21.30
2023-07-03T00:47:27.983Z,21.30
2023-07-03T00:48:30.117Z,21.30
2023-07-03T00:49:33.296Z,21.30
2023-07-03T00:50:35.991Z,21.20
2023-07-03T00:51:42.624Z,21.20
2023-07-03T00:52:46.543Z,21.20
2023-07-03T00:53:48.244Z,21.20
2023-07-03T00:54:50.094Z,21.20
2023-07-03T00:55:52.147Z,21.20
2023-07-03T00:56:54.261Z,21.20
2023-07-03T00:57:56.311Z,21.20
2023-07-03T00:58:58.215Z,21.20
2023-07-03T01:00:01.042Z,21.20
2023-07-03T01:01:40.231Z,21.20
2023-07-03T01:02:59.470Z,21.20
2023-07-03T01:04:12.830Z,21.20
2023-07-03T01:05:20.493Z,21.20
2023-07-03T01:06:29.817Z,21.20
2023-07-03T01:07:35.173Z,21.20
2023-07-03T01:08:38.105Z,21.20
2023-07-03T01:09:53.763Z,21.30
2023-07-03T01:10:56.609Z,21.30
2023-07-03T01:11:59.276Z,21.30
2023-07-03T01:13:07.662Z,21.30
2023-07-03T01:14:13.666Z,21.30
2023-07-03T01:15:21.784Z,21.20
2023-07-03T01:16:24.271Z,21.30
2023-07-03T01:17:29.360Z,21.20
2023-07-03T01:18:31.692Z,21.30
2023-07-03T01:19:34.673Z,21.30
2023-07-03T01:20:43.590Z,21.20
2023-07-03T01:21:56.750Z,21.30
2023-07-03T01:23:13.663Z,21.30
2023-07-03T01:24:38.084Z,21.30
2023-07-03T01:25:43.773Z,21.30
2023-07-03T01:26:47.288Z,21.30
2023-07-03T01:27:53.956Z,21.40
2023-07-03T01:28:59.463Z,21.40
2023-07-03T01:30:04.376Z,21.40
2023-07-03T01:31:08.845Z,21.40
2023-07-03T01:32:15.645Z,21.30
2023-07-03T01:33:22.781Z,21.30
2023-07-03T01:34:25.920Z,21.40
2023-07-03T01:35:28.626Z,21.30
2023-07-03T01:36:32.362Z,21.40
2023-07-03T01:37:36.125Z,21.40
2023-07-03T01:38:39.067Z,21.40
2023-07-03T01:39:43.514Z,21.40
2023-07-03T01:40:45.281Z,21.40
2023-07-03T01:41:47.409Z,21.50
2023-07-03T01:42:49.288Z,21.50
2023-07-03T01:43:51.665Z,21.50
2023-07-03T01:44:53.398Z,21.50
2023-07-03T01:45:55.398Z,21.50
2023-07-03T01:47:08.341Z,21.50
2023-07-03T01:48:10.543Z,21.50
2023-07-03T01:49:14.958Z,21.50
2023-07-03T01:50:24.038Z,21.40
2023-07-03T01:51:43.584Z,21.40
2023-07-03T01:52:52.659Z,21.40
2023-07-03T01:54:02.649Z,21.40
2023-07-03T01:55:23.909Z,21.40
2023-07-03T01:56:36.110Z,21.40
2023-07-03T01:58:00.158Z,21.40
2023-07-03T01:59:12.095Z,21.40
2023-07-03T02:00:20.137Z,21.40
2023-07-03T02:01:29.200Z,21.40
2023-07-03T02:02:31.670Z,21.40
2023-07-03T02:03:43.820Z,21.40
2023-07-03T02:04:59.096Z,21.40
2023-07-03T02:06:05.590Z,21.40
2023-07-03T02:07:10.214Z,21.40
2023-07-03T02:08:13.205Z,21.30
2023-07-03T02:09:17.533Z,21.30
2023-07-03T02:10:19.938Z,21.30
2023-07-03T02:11:24.033Z,21.30
2023-07-03T02:12:25.698Z,21.30
2023-07-03T02:13:27.496Z,21.30
2023-07-03T02:14:30.495Z,21.30
2023-07-03T02:15:32.259Z,21.30
2023-07-03T02:16:34.455Z,21.30
2023-07-03T02:17:37.417Z,21.30
2023-07-03T02:18:39.197Z,21.30
2023-07-03T02:19:41.508Z,21.30
2023-07-03T02:20:43.242Z,21.20
2023-07-03T02:21:47.653Z,21.30
2023-07-03T02:22:49.406Z,21.30
2023-07-03T02:23:51.224Z,21.20
2023-07-03T02:24:52.990Z,21.20
2023-07-03T02:25:54.675Z,21.20
2023-07-03T02:26:56.617Z,21.20
2023-07-03T02:27:58.453Z,21.20
2023-07-03T02:29:00.309Z,21.30
2023-07-03T02:30:02.233Z,21.20
2023-07-03T02:31:04.581Z,21.20
2023-07-03T02:32:14.049Z,21.20
2023-07-03T02:33:16.913Z,21.30
2023-07-03T02:34:18.671Z,21.30
2023-07-03T02:35:20.426Z,21.20
2023-07-03T02:36:22.119Z,21.30
2023-07-03T02:37:23.889Z,21.30
2023-07-03T02:38:25.605Z,21.30
2023-07-03T02:39:27.399Z,21.20
2023-07-03T02:40:29.200Z,21.30
2023-07-03T02:41:31.076Z,21.30
2023-07-03T02:42:32.786Z,21.30
2023-07-03T02:43:34.457Z,21.30
2023-07-03T02:44:37.274Z,21.30
2023-07-03T02:45:40.739Z,21.30
2023-07-03T02:46:43.273Z,21.30
2023-07-03T02:47:45.109Z,21.30
2023-07-03T02:48:46.973Z,21.20
2023-07-03T02:49:48.823Z,21.30
2023-07-03T02:50:54.172Z,21.20
2023-07-03T02:51:55.885Z,21.20
2023-07-03T02:52:57.574Z,21.20
2023-07-03T02:53:59.742Z,21.20
2023-07-03T02:55:01.471Z,21.20
2023-07-03T02:56:03.200Z,21.20
2023-07-03T02:57:07.606Z,21.20
2023-07-03T02:58:09.970Z,21.20
2023-07-03T02:59:12.864Z,21.20
2023-07-03T03:00:14.983Z,21.20
2023-07-03T03:01:16.789Z,21.20
2023-07-03T03:02:19.756Z,21.20
2023-07-03T03:03:21.688Z,21.20
2023-07-03T03:04:23.537Z,21.20
2023-07-03T03:05:25.245Z,21.20
2023-07-03T03:06:26.943Z,21.20
2023-07-03T03:07:28.698Z,21.20
2023-07-03T03:08:30.362Z,21.20
2023-07-03T03:09:32.039Z,21.20
2023-07-03T03:10:33.713Z,21.20
2023-07-03T03:11:35.693Z,21.20
2023-07-03T03:12:37.393Z,21.20
2023-07-03T03:13:39.058Z,21.20
2023-07-03T03:14:40.735Z,21.20
2023-07-03T03:15:43.532Z,21.20
2023-07-03T03:16:49.981Z,21.20
2023-07-03T03:17:51.940Z,21.20
2023-07-03T03:18:53.780Z,21.20
2023-07-03T03:19:57.230Z,21.20
2023-07-03T03:20:59.990Z,21.20
2023-07-03T03:22:02.053Z,21.20
2023-07-03T03:23:04.082Z,21.20
2023-07-03T03:24:06.012Z,21.20
2023-07-03T03:25:08.025Z,21.20
2023-07-03T03:26:09.788Z,21.20
2023-07-03T03:27:11.470Z,21.20
2023-07-03T03:28:13.218Z,21.20
2023-07-03T03:29:17.248Z,21.20
2023-07-03T03:30:19.171Z,21.20
2023-07-03T03:31:21.848Z,21.20
2023-07-03T03:32:23.701Z,21.20
2023-07-03T03:33:25.414Z,21.20
2023-07-03T03:34:27.200Z,21.20
2023-07-03T03:35:28.958Z,21.30
2023-07-03T03:36:34.064Z,21.30
2023-07-03T03:37:35.731Z,21.30
2023-07-03T03:38:38.520Z,21.30
2023-07-03T03:39:40.371Z,21.20
2023-07-03T03:40:53.767Z,21.20
2023-07-03T03:41:55.456Z,21.20
2023-07-03T03:42:57.135Z,21.30
2023-07-03T03:43:58.813Z,21.20
2023-07-03T03:45:00.830Z,21.20
2023-07-03T03:46:03.217Z,21.20
2023-07-03T03:47:05.597Z,21.20
2023-07-03T03:48:07.599Z,21.20
2023-07-03T03:49:10.611Z,21.20
2023-07-03T03:50:12.357Z,21.20
2023-07-03T03:51:14.116Z,21.30
2023-07-03T03:52:15.845Z,21.30
2023-07-03T03:53:17.854Z,21.30
2023-07-03T03:54:20.475Z,21.30
2023-07-03T03:55:22.222Z,21.20
2023-07-03T03:56:24.193Z,21.20
2023-07-03T03:57:25.906Z,21.30
2023-07-03T03:58:27.735Z,21.20
2023-07-03T03:59:29.538Z,21.20
2023-07-03T04:00:31.927Z,21.20
2023-07-03T04:01:35.610Z,21.30
2023-07-03T04:02:37.632Z,21.30
2023-07-03T04:03:39.438Z,21.20
2023-07-03T04:04:41.146Z,21.30
2023-07-03T04:05:43.456Z,21.20
2023-07-03T04:06:45.138Z,21.20
2023-07-03T04:07:46.822Z,21.20
2023-07-03T04:08:48.489Z,21.30
2023-07-03T04:09:50.230Z,21.30
2023-07-03T04:10:52.078Z,21.30
2023-07-03T04:11:53.798Z,21.30
2023-07-03T04:12:55.502Z,21.30
2023-07-03T04:13:58.119Z,21.30
2023-07-03T04:14:59.842Z,21.30
2023-07-03T04:16:03.354Z,21.30
2023-07-03T04:17:06.504Z,21.30
2023-07-03T04:18:08.246Z,21.30
2023-07-03T04:19:10.366Z,21.30
2023-07-03T04:20:14.776Z,21.20
2023-07-03T04:21:18.884Z,21.30
2023-07-03T04:22:20.896Z,21.20
2023-07-03T04:23:23.086Z,21.30
2023-07-03T04:24:26.007Z,21.20
2023-07-03T04:25:28.012Z,21.20
2023-07-03T04:26:29.664Z,21.20
2023-07-03T04:27:31.423Z,21.30
2023-07-03T04:28:33.201Z,21.30
2023-07-03T04:29:34.963Z,21.20
2023-07-03T04:30:36.627Z,21.30
2023-07-03T04:31:38.600Z,21.20
2023-07-03T04:32:40.413Z,21.30
2023-07-03T04:33:44.106Z,21.30
2023-07-03T04:34:45.942Z,21.30
2023-07-03T04:35:49.113Z,21.20
2023-07-03T04:36:51.416Z,21.30
2023-07-03T04:37:53.160Z,21.20
2023-07-03T04:38:58.922Z,21.20
2023-07-03T04:40:00.661Z,21.20
2023-07-03T04:41:02.357Z,21.20
2023-07-03T04:42:05.575Z,21.20
2023-07-03T04:43:09.169Z,21.20
2023-07-03T04:44:13.567Z,21.20
2023-07-03T04:45:16.856Z,21.20
2023-07-03T04:46:24.873Z,21.20
2023-07-03T04:47:26.737Z,21.20
2023-07-03T04:48:28.488Z,21.20
2023-07-03T04:49:30.357Z,21.20
2023-07-03T04:50:32.863Z,21.20
2023-07-03T04:51:34.786Z,21.20
2023-07-03T04:52:39.982Z,21.30
2023-07-03T04:53:43.297Z,21.20
2023-07-03T04:54:45.211Z,21.30
2023-07-03T04:55:46.934Z,21.20
2023-07-03T04:56:49.500Z,21.20
2023-07-03T04:57:51.476Z,21.20
2023-07-03T04:58:53.510Z,21.20
2023-07-03T04:59:56.222Z,21.20
2023-07-03T05:00:58.027Z,21.20
2023-07-03T05:01:59.772Z,21.20
2023-07-03T05:03:05.639Z,21.20
2023-07-03T05:04:07.583Z,21.20
2023-07-03T05:05:11.874Z,21.20
2023-07-03T05:06:13.786Z,21.20
2023-07-03T05:07:21.079Z,21.20
2023-07-03T05:08:23.001Z,21.20
2023-07-03T05:09:24.781Z,21.20
2023-07-03T05:10:26.751Z,21.20
2023-07-03T05:11:28.556Z,21.30
2023-07-03T05:12:30.214Z,21.20
2023-07-03T05:13:31.882Z,21.30
2023-07-03T05:14:36.566Z,21.30
2023-07-03T05:15:39.373Z,21.30
2023-07-03T05:16:49.639Z,21.30
2023-07-03T05:17:55.905Z,21.30
2023-07-03T05:18:57.871Z,21.30
2023-07-03T05:19:59.589Z,21.30
2023-07-03T05:21:01.775Z,21.30
2023-07-03T05:22:03.551Z,21.30
2023-07-03T05:23:05.229Z,21.30
2023-07-03T05:24:07.127Z,21.30
2023-07-03T05:25:11.970Z,21.30
2023-07-03T05:26:13.627Z,21.30
2023-07-03T05:27:15.277Z,21.30
2023-07-03T05:28:17.037Z,21.30
2023-07-03T05:29:18.764Z,21.40
2023-07-03T05:30:20.609Z,21.40
2023-07-03T05:31:24.512Z,21.50
2023-07-03T05:32:26.672Z,21.50
2023-07-03T05:33:29.032Z,21.50
2023-07-03T05:34:30.715Z,21.50
2023-07-03T05:35:32.435Z,21.50
2023-07-03T05:36:36.838Z,21.50
2023-07-03T05:37:38.771Z,21.50
2023-07-03T05:38:40.500Z,21.50
2023-07-03T05:39:42.593Z,21.50
2023-07-03T05:40:45.316Z,21.50
2023-07-03T05:41:47.098Z,21.50
2023-07-03T05:42:48.779Z,21.50
2023-07-03T05:43:50.524Z,21.50
2023-07-03T05:44:52.262Z,21.50
2023-07-03T05:45:54.323Z,21.50
2023-07-03T05:46:56.341Z,21.50
2023-07-03T05:47:58.276Z,21.50
2023-07-03T05:49:00.375Z,21.50
2023-07-03T05:50:03.546Z,21.50
2023-07-03T05:51:05.285Z,21.50
2023-07-03T05:52:07.522Z,21.50
2023-07-03T05:53:10.457Z,21.50
2023-07-03T05:54:12.311Z,21.60
2023-07-03T05:55:14.390Z,21.60
2023-07-03T05:56:16.083Z,21.60
2023-07-03T05:57:17.972Z,21.60
2023-07-03T05:58:19.982Z,21.60
2023-07-03T05:59:21.708Z,21.60
2023-07-03T06:00:25.196Z,21.60
2023-07-03T06:01:29.630Z,21.80
2023-07-03T06:02:31.715Z,21.60
2023-07-03T06:03:33.668Z,21.60
2023-07-03T06:04:36.326Z,21.60
2023-07-03T06:05:38.055Z,21.60
2023-07-03T06:06:39.897Z,21.60
2023-07-03T06:07:41.758Z,21.70
2023-07-03T06:08:43.463Z,21.70
2023-07-03T06:09:46.739Z,21.70
2023-07-03T06:10:48.505Z,21.70
2023-07-03T06:11:50.306Z,21.70
2023-07-03T06:12:52.059Z,21.80
2023-07-03T06:13:54.358Z,21.80
2023-07-03T06:15:03.203Z,21.80
2023-07-03T06:16:05.109Z,21.80
2023-07-03T06:17:06.931Z,21.80
2023-07-03T06:18:08.816Z,21.80
2023-07-03T06:19:14.199Z,21.80
2023-07-03T06:20:16.030Z,21.90
2023-07-03T06:21:17.768Z,21.90
2023-07-03T06:22:19.933Z,21.90
2023-07-03T06:23:21.599Z,21.90
2023-07-03T06:24:23.870Z,21.90
2023-07-03T06:25:25.628Z,21.90
2023-07-03T06:26:29.967Z,22.00
2023-07-03T06:27:31.616Z,22.00
2023-07-03T06:28:33.285Z,22.00
2023-07-03T06:29:35.248Z,22.00
2023-07-03T06:30:36.931Z,22.00
2023-07-03T06:31:39.133Z,22.00
2023-07-03T06:32:41.215Z,22.00
2023-07-03T06:33:43.270Z,22.00
2023-07-03T06:34:45.067Z,22.00
2023-07-03T06:35:48.828Z,22.10
2023-07-03T06:36:50.735Z,22.10
2023-07-03T06:37:59.386Z,22.10
2023-07-03T06:39:02.318Z,22.20
2023-07-03T06:40:10.784Z,22.20
2023-07-03T06:41:12.725Z,22.20
2023-07-03T06:42:15.071Z,22.30
2023-07-03T06:43:17.018Z,22.30
2023-07-03T06:44:21.679Z,22.30
2023-07-03T06:45:23.534Z,22.20
2023-07-03T06:46:27.247Z,22.20
2023-07-03T06:47:29.521Z,22.30
2023-07-03T06:48:31.657Z,22.30
2023-07-03T06:49:34.996Z,22.20
2023-07-03T06:50:36.778Z,22.20
2023-07-03T06:51:38.689Z,22.20
2023-07-03T06:52:44.052Z,22.20
2023-07-03T06:53:45.944Z,22.20
2023-07-03T06:54:49.139Z,22.20
2023-07-03T06:56:00.418Z,22.30
2023-07-03T06:57:02.283Z,22.20
2023-07-03T06:58:04.346Z,22.30
2023-07-03T06:59:06.431Z,22.30
2023-07-03T07:00:09.939Z,22.30
2023-07-03T07:01:13.782Z,22.30
2023-07-03T07:02:15.652Z,22.30
2023-07-03T07:03:17.661Z,22.40
2023-07-03T07:04:22.008Z,22.40
2023-07-03T07:05:24.086Z,22.40
2023-07-03T07:06:28.784Z,22.40
2023-07-03T07:07:30.708Z,22.50
2023-07-03T07:08:32.635Z,22.50
2023-07-03T07:09:35.047Z,22.50
2023-07-03T07:10:40.984Z,22.50
2023-07-03T07:11:42.826Z,22.50
2023-07-03T07:12:45.215Z,22.50
2023-07-03T07:13:49.189Z,22.50
2023-07-03T07:14:51.332Z,22.50
2023-07-03T07:15:53.264Z,22.50
2023-07-03T07:16:55.354Z,22.50
2023-07-03T07:17:57.234Z,22.50
2023-07-03T07:19:02.888Z,22.50
2023-07-03T07:20:05.404Z,22.50
2023-07-03T07:21:07.802Z,22.50
2023-07-03T07:22:12.895Z,22.40
2023-07-03T07:23:16.831Z,22.40
2023-07-03T07:24:21.827Z,22.40
2023-07-03T07:25:24.016Z,22.40
2023-07-03T07:26:30.086Z,22.40
2023-07-03T07:27:31.885Z,22.40
2023-07-03T07:28:33.680Z,22.30
2023-07-03T07:29:35.961Z,22.30
2023-07-03T07:30:39.282Z,22.30
2023-07-03T07:31:42.267Z,22.30
2023-07-03T07:32:47.355Z,22.30
2023-07-03T07:33:49.421Z,22.30
2023-07-03T07:34:51.309Z,22.20
2023-07-03T07:35:53.568Z,22.20
2023-07-03T07:36:55.647Z,22.30
2023-07-03T07:38:02.720Z,22.30
2023-07-03T07:39:04.864Z,22.20
2023-07-03T07:40:10.033Z,22.20
2023-07-03T07:41:12.681Z,22.30
2023-07-03T07:42:14.813Z,22.30
2023-07-03T07:43:17.038Z,22.30
2023-07-03T07:44:20.064Z,22.30
2023-07-03T07:45:22.011Z,22.30
2023-07-03T07:46:29.260Z,22.30
2023-07-03T07:47:32.211Z,22.30
2023-07-03T07:48:35.305Z,22.40
2023-07-03T07:49:37.708Z,22.40
2023-07-03T07:50:42.145Z,22.40
2023-07-03T07:51:52.880Z,22.40
2023-07-03T07:52:55.416Z,22.50
2023-07-03T07:53:59.277Z,22.40
2023-07-03T07:55:01.475Z,22.40
2023-07-03T07:56:04.993Z,22.40
2023-07-03T07:57:08.249Z,22.40
2023-07-03T07:58:10.493Z,22.40
2023-07-03T07:59:12.552Z,22.40
2023-07-03T08:00:15.900Z,22.40
2023-07-03T08:01:18.930Z,22.40
2023-07-03T08:02:21.068Z,22.40
2023-07-03T08:03:23.320Z,22.40
2023-07-03T08:04:25.439Z,22.40
2023-07-03T08:05:27.463Z,22.40
2023-07-03T08:06:29.344Z,22.50
2023-07-03T08:07:31.302Z,22.50
2023-07-03T08:08:33.698Z,22.60
2023-07-03T08:09:35.461Z,22.70
2023-07-03T08:10:37.702Z,22.70
2023-07-03T08:11:43.242Z,22.80
2023-07-03T08:12:45.181Z,22.90
2023-07-03T08:13:47.187Z,23.00
2023-07-03T08:14:52.005Z,23.00
2023-07-03T08:15:55.442Z,23.10
2023-07-03T08:16:57.533Z,23.20
2023-07-03T08:17:59.781Z,23.30
2023-07-03T08:19:01.536Z,23.40
2023-07-03T08:20:03.542Z,23.40
2023-07-03T08:21:05.786Z,23.40
2023-07-03T08:22:07.679Z,23.40
2023-07-03T08:23:09.525Z,23.40
2023-07-03T08:24:12.142Z,23.20
2023-07-03T08:25:14.060Z,23.10
2023-07-03T08:26:23.898Z,23.10
2023-07-03T08:27:25.636Z,23.00
2023-07-03T08:28:27.739Z,22.90
2023-07-03T08:29:29.436Z,22.90
2023-07-03T08:30:31.309Z,22.80
2023-07-03T08:31:33.024Z,22.80
2023-07-03T08:32:34.839Z,22.80
2023-07-03T08:33:36.807Z,22.80
2023-07-03T08:34:39.218Z,22.80
2023-07-03T08:37:50.721Z,22.90
2023-07-03T08:38:52.431Z,22.80
2023-07-03T08:39:54.158Z,22.80
2023-07-03T08:40:58.424Z,22.80
2023-07-03T08:42:19.927Z,22.90
2023-07-03T08:43:21.682Z,22.90
2023-07-03T08:44:23.800Z,22.80
2023-07-03T08:45:45.810Z,22.80
2023-07-03T08:47:01.909Z,22.80
2023-07-03T08:48:23.159Z,22.80
2023-07-03T08:49:25.836Z,22.90
2023-07-03T08:50:37.155Z,22.90
2023-07-03T08:51:40.731Z,23.00
2023-07-03T08:52:57.960Z,23.00
2023-07-03T08:54:21.686Z,23.10
2023-07-03T08:55:29.363Z,23.20
2023-07-03T08:56:34.540Z,23.20
2023-07-03T08:57:38.741Z,23.20
2023-07-03T08:58:41.027Z,23.20
2023-07-03T08:59:42.746Z,23.20
2023-07-03T09:01:16.521Z,23.20
2023-07-03T09:02:36.807Z,23.20
2023-07-03T09:03:42.037Z,23.30
2023-07-03T09:05:02.325Z,23.20
2023-07-03T09:06:22.701Z,23.20
2023-07-03T09:07:31.177Z,23.20
2023-07-03T09:08:56.121Z,23.20
2023-07-03T09:10:19.029Z,23.20
2023-07-03T09:11:22.866Z,23.20
2023-07-03T09:12:46.870Z,23.20
2023-07-03T09:13:52.909Z,23.20
2023-07-03T09:15:05.841Z,23.20
2023-07-03T09:16:20.168Z,23.20
2023-07-03T09:17:24.188Z,23.20
2023-07-03T09:18:32.004Z,23.30
2023-07-03T09:19:34.258Z,23.30
2023-07-03T09:20:38.660Z,23.30
2023-07-03T09:21:45.356Z,23.20
2023-07-03T09:22:57.344Z,23.20
2023-07-03T09:24:10.776Z,23.30
2023-07-03T09:25:24.245Z,23.30
2023-07-03T09:26:44.217Z,23.40
2023-07-03T09:27:49.764Z,23.30
2023-07-03T09:28:59.035Z,23.30
2023-07-03T09:30:05.474Z,23.30
2023-07-03T09:31:07.339Z,23.30
2023-07-03T09:32:13.093Z,23.40
2023-07-03T09:33:15.016Z,23.40
2023-07-03T09:34:17.566Z,23.50
2023-07-03T09:35:21.448Z,23.50
2023-07-03T09:36:28.295Z,23.50
2023-07-03T09:37:30.263Z,23.50
2023-07-03T09:38:37.037Z,23.50
2023-07-03T09:39:39.139Z,23.50
2023-07-03T09:40:45.182Z,23.50
2023-07-03T09:41:47.996Z,23.40
2023-07-03T09:42:50.288Z,23.30
2023-07-03T09:43:52.103Z,23.30
2023-07-03T09:44:53.879Z,23.20
2023-07-03T09:46:10.432Z,23.20
2023-07-03T09:47:27.501Z,23.20
2023-07-03T09:48:32.237Z,23.30
2023-07-03T09:49:34.546Z,23.30
2023-07-03T09:50:38.872Z,23.40
2023-07-03T09:51:40.935Z,23.40
2023-07-03T09:52:52.386Z,23.50
2023-07-03T09:54:20.600Z,23.60
2023-07-03T09:55:22.968Z,23.70
2023-07-03T09:56:29.356Z,23.70
2023-07-03T09:57:31.220Z,23.70
2023-07-03T09:58:32.913Z,23.70
2023-07-03T09:59:37.221Z,23.70
2023-07-03T10:00:49.510Z,23.80
2023-07-03T10:06:40.943Z,23.70
2023-07-03T10:07:45.423Z,23.80
2023-07-03T10:11:33.718Z,23.70
2023-07-03T10:12:40.919Z,23.70
2023-07-03T10:13:48.402Z,23.80
2023-07-03T10:14:58.754Z,23.80
2023-07-03T10:16:02.662Z,23.80
2023-07-03T10:17:13.951Z,23.90
2023-07-03T10:18:21.387Z,23.90
2023-07-03T10:19:23.488Z,24.00
2023-07-03T10:20:35.075Z,24.00
2023-07-03T10:21:39.428Z,24.00
2023-07-03T10:22:43.750Z,24.10
2023-07-03T10:23:46.234Z,24.10
2023-07-03T10:24:48.904Z,24.10
2023-07-03T10:25:56.285Z,24.10
2023-07-03T10:27:00.284Z,24.10
2023-07-03T10:28:13.416Z,24.20
2023-07-03T10:29:28.348Z,24.20
2023-07-03T10:30:34.146Z,24.30
2023-07-03T10:31:55.155Z,24.30
2023-07-03T10:32:59.572Z,24.30
2023-07-03T10:34:07.940Z,24.30
2023-07-03T10:35:17.767Z,24.20
2023-07-03T10:36:25.484Z,24.10
2023-07-03T10:37:28.042Z,24.10
2023-07-03T10:38:29.937Z,24.10
2023-07-03T10:39:43.156Z,24.10
2023-07-03T10:41:05.264Z,24.10
2023-07-03T10:42:31.043Z,24.10
2023-07-03T10:43:39.518Z,24.20
2023-07-03T10:44:43.134Z,24.20
2023-07-03T10:45:47.145Z,24.20
2023-07-03T10:46:59.507Z,24.30
2023-07-03T10:48:11.212Z,24.20
2023-07-03T10:49:20.576Z,24.20
2023-07-03T10:50:29.408Z,24.30
2023-07-03T10:51:58.007Z,24.30
2023-07-03T10:53:17.001Z,24.30
2023-07-03T10:54:26.180Z,24.40
2023-07-03T10:55:38.742Z,24.30
2023-07-03T10:56:48.085Z,24.30
2023-07-03T10:58:12.726Z,24.40
2023-07-03T10:59:26.900Z,24.50
2023-07-03T11:00:54.521Z,24.60
2023-07-03T11:02:16.369Z,24.80
2023-07-03T11:03:18.379Z,25.00
2023-07-03T11:04:25.156Z,25.00
2023-07-03T11:05:35.519Z,25.00
2023-07-03T11:06:58.373Z,25.00
2023-07-03T11:08:23.800Z,25.00
2023-07-03T11:09:47.604Z,25.10
2023-07-03T11:11:09.313Z,25.10
2023-07-03T11:12:25.958Z,25.00
2023-07-03T11:13:52.959Z,25.10
2023-07-03T11:15:31.552Z,25.10
2023-07-03T11:17:06.108Z,25.30
2023-07-03T11:20:17.474Z,25.40
2023-07-03T11:23:02.056Z,25.40
2023-07-03T11:24:14.958Z,25.30
2023-07-03T11:25:25.623Z,25.30
2023-07-03T11:28:04.400Z,25.10
2023-07-03T11:29:11.687Z,25.10
2023-07-03T11:30:14.352Z,25.10
2023-07-03T11:31:18.902Z,25.10
2023-07-03T11:32:21.352Z,25.10
2023-07-03T11:33:23.637Z,25.10
2023-07-03T11:36:50.299Z,25.10
2023-07-03T11:40:39.460Z,25.30
2023-07-03T11:44:43.710Z,25.20
2023-07-03T11:46:02.183Z,25.20
2023-07-03T11:47:11.382Z,25.20
2023-07-03T11:48:39.486Z,25.10
2023-07-03T11:49:50.437Z,25.00
2023-07-03T11:51:03.354Z,25.00
2023-07-03T11:52:07.463Z,25.00
2023-07-03T11:53:09.169Z,24.90
2023-07-03T11:54:18.776Z,25.00
2023-07-03T11:55:23.034Z,25.00
2023-07-03T11:56:34.342Z,24.90
2023-07-03T11:57:46.162Z,25.00
2023-07-03T11:59:05.666Z,25.00
2023-07-03T12:00:15.546Z,25.00
2023-07-03T12:01:31.650Z,25.10
2023-07-03T12:02:39.255Z,25.10
2023-07-03T12:04:01.566Z,25.10
2023-07-03T12:05:05.130Z,25.10
2023-07-03T12:06:06.898Z,25.10
2023-07-03T12:07:08.673Z,25.00
2023-07-03T12:08:19.547Z,24.80
2023-07-03T12:09:33.349Z,24.80
2023-07-03T12:10:41.956Z,24.80
2023-07-03T12:12:20.422Z,24.80
2023-07-03T12:13:29.161Z,25.00
2023-07-03T12:14:43.797Z,25.10
2023-07-03T12:15:58.003Z,25.30
2023-07-03T12:16:59.761Z,25.30
2023-07-03T12:18:04.387Z,25.30
2023-07-03T12:19:12.799Z,25.30
2023-07-03T12:20:22.564Z,25.30
2023-07-03T12:21:24.945Z,25.30
2023-07-03T12:22:28.623Z,25.40
2023-07-03T12:23:39.223Z,25.50
2023-07-03T12:24:41.345Z,25.60
2023-07-03T12:25:43.060Z,25.70
2023-07-03T12:26:53.838Z,25.80
2023-07-03T12:28:14.214Z,25.80
2023-07-03T12:29:20.077Z,25.70
2023-07-03T12:30:29.303Z,25.70
2023-07-03T12:31:31.235Z,25.70
2023-07-03T12:32:36.523Z,25.70
2023-07-03T12:33:50.249Z,25.70
2023-07-03T12:34:52.096Z,25.80
2023-07-03T12:35:53.845Z,25.80
2023-07-03T12:37:09.405Z,25.90
2023-07-03T12:38:11.781Z,26.00
2023-07-03T12:39:16.057Z,26.10
2023-07-03T12:40:19.874Z,26.20
2023-07-03T12:41:33.987Z,26.20
2023-07-03T12:42:36.087Z,26.30
2023-07-03T12:43:37.830Z,26.30
2023-07-03T12:44:40.130Z,26.30
2023-07-03T12:45:42.193Z,26.40
2023-07-03T12:46:46.710Z,26.30
2023-07-03T12:48:09.378Z,26.30
2023-07-03T12:49:19.675Z,26.30
2023-07-03T12:50:21.364Z,26.40
2023-07-03T12:51:23.165Z,26.50
2023-07-03T12:52:27.207Z,26.70
2023-07-03T12:53:33.672Z,26.90
2023-07-03T12:54:35.523Z,27.00
2023-07-03T12:55:38.822Z,27.00
2023-07-03T12:56:41.851Z,26.90
2023-07-03T12:57:43.840Z,26.60
2023-07-03T12:58:45.611Z,26.40
2023-07-03T12:59:49.805Z,26.30
2023-07-03T13:01:08.808Z,26.20
2023-07-03T13:02:10.616Z,26.10
2023-07-03T13:03:18.448Z,26.00
2023-07-03T13:04:29.432Z,25.90
2023-07-03T13:05:34.036Z,25.80
2023-07-03T13:06:36.043Z,25.80
2023-07-03T13:07:41.278Z,25.80
2023-07-03T13:08:46.934Z,25.90
2023-07-03T13:09:49.657Z,26.10
2023-07-03T13:11:03.630Z,26.30
2023-07-03T13:12:18.844Z,26.30
2023-07-03T13:13:21.250Z,26.20
2023-07-03T13:14:26.357Z,26.20
2023-07-03T13:15:40.172Z,26.10
2023-07-03T13:16:44.266Z,26.10
2023-07-03T13:17:46.065Z,26.10
2023-07-03T13:19:00.989Z,26.10
2023-07-03T13:20:29.208Z,26.10
2023-07-03T13:21:32.121Z,26.00
2023-07-03T13:22:34.369Z,25.90
2023-07-03T13:23:38.781Z,25.80
2023-07-03T13:24:53.076Z,25.80
2023-07-03T13:25:56.623Z,25.60
2023-07-03T13:26:59.606Z,25.60
2023-07-03T13:28:05.125Z,25.70
2023-07-03T13:29:07.210Z,25.70
2023-07-03T13:30:28.703Z,25.90
2023-07-03T13:31:46.489Z,26.10
2023-07-03T13:32:56.090Z,26.10
2023-07-03T13:34:13.812Z,26.00
2023-07-03T13:35:25.810Z,25.90
2023-07-03T13:36:33.999Z,25.90
2023-07-03T13:37:37.311Z,25.60
2023-07-03T13:38:40.552Z,25.50
2023-07-03T13:39:46.461Z,25.50
2023-07-03T13:40:53.546Z,25.50
2023-07-03T13:41:57.622Z,25.40
2023-07-03T13:42:59.856Z,25.40
2023-07-03T13:44:03.959Z,25.40
2023-07-03T13:45:08.223Z,25.40
2023-07-03T13:46:10.062Z,25.40
2023-07-03T13:47:13.000Z,25.40
2023-07-03T13:48:14.706Z,25.50
2023-07-03T13:49:17.975Z,25.50
2023-07-03T13:50:20.157Z,25.60
2023-07-03T13:51:22.736Z,25.50
2023-07-03T13:52:24.511Z,25.60
2023-07-03T13:53:27.291Z,25.60
2023-07-03T13:54:29.026Z,25.50
2023-07-03T13:55:31.270Z,25.60
2023-07-03T13:56:35.397Z,25.60
2023-07-03T13:57:38.720Z,25.60
2023-07-03T13:58:40.715Z,25.60
2023-07-03T13:59:42.464Z,25.50
2023-07-03T14:00:44.433Z,25.50
2023-07-03T14:01:46.225Z,25.50
2023-07-03T14:02:49.327Z,25.40
2023-07-03T14:03:51.485Z,25.40
2023-07-03T14:04:53.370Z,25.30
2023-07-03T14:05:55.184Z,25.30
2023-07-03T14:06:57.072Z,25.40
2023-07-03T14:07:59.136Z,25.30
2023-07-03T14:09:01.018Z,25.30
2023-07-03T14:10:03.753Z,25.30
2023-07-03T14:11:05.745Z,25.30
2023-07-03T14:12:07.810Z,25.30
2023-07-03T14:13:10.539Z,25.20
2023-07-03T14:14:12.404Z,25.20
2023-07-03T14:15:17.873Z,25.20
2023-07-03T14:16:20.093Z,25.30
2023-07-03T14:17:21.895Z,25.30
2023-07-03T14:18:23.673Z,25.30
2023-07-03T14:19:25.377Z,25.30
2023-07-03T14:20:27.219Z,25.30
2023-07-03T14:21:28.951Z,25.30
2023-07-03T14:22:30.892Z,25.30
2023-07-03T14:23:34.772Z,25.20